Vila Flor, Brazil
Current Conditions -  °F | °C
As of 10:00 AM on Thursday 23 Oct 2014 (Local Time) from SBNT Reporting Station
Broken Clouds Broken Clouds  
Wind Chill: 84°   Ceiling: 2500
Heat Index: 87°   Visibility: 6mi
Dew Point: 68°   Wind: 20mph
Humidity: 58%   Direction: 110°ESE
Pressure: 29.97"   Gusts: NA
Location:  6.31°S, 35.08°W
Report Text: SBNT 231300Z 11017KT 9999 BKN025 29/20 Q1015
Loading
Personal Weather Stations






























Interactive Weather Map
Tropical Storm Tracking
New forecast layout! Learn more

10-Day Weather Forecast

Advertisements
Track Severe Weather on mobile